createdAt,value
2018-12-31T00:02:06.209Z,47.07
2018-12-31T00:07:09.994Z,47.19
2018-12-31T00:12:13.770Z,47.13
2018-12-31T00:17:17.547Z,47.13
2018-12-31T00:22:21.329Z,47.24
2018-12-31T00:27:25.105Z,47.55
2018-12-31T00:32:28.870Z,47.55
2018-12-31T00:37:32.635Z,47.30
2018-12-31T00:42:36.405Z,47.23
2018-12-31T00:47:40.182Z,47.18
2018-12-31T00:52:43.951Z,47.34
2018-12-31T00:57:47.720Z,47.89
2018-12-31T01:02:51.527Z,47.70
2018-12-31T01:07:55.414Z,47.48
2018-12-31T01:12:59.186Z,47.48
2018-12-31T01:18:02.974Z,47.74
2018-12-31T01:23:06.741Z,47.87
2018-12-31T01:28:10.544Z,47.87
2018-12-31T01:33:14.278Z,47.54
2018-12-31T01:38:18.044Z,47.47
2018-12-31T01:43:21.825Z,47.83
2018-12-31T01:48:25.598Z,47.47
2018-12-31T01:53:29.369Z,47.40
2018-12-31T01:58:33.134Z,48.19
2018-12-31T02:03:36.904Z,48.03
2018-12-31T02:08:40.670Z,48.03
2018-12-31T02:13:44.475Z,48.00
2018-12-31T02:18:48.289Z,48.04
2018-12-31T02:23:52.068Z,48.07
2018-12-31T02:28:55.831Z,48.37
2018-12-31T02:33:59.595Z,48.37
2018-12-31T02:39:03.714Z,48.73
2018-12-31T02:44:07.471Z,48.42
2018-12-31T02:49:11.248Z,48.42
2018-12-31T02:54:15.296Z,48.70
2018-12-31T02:59:19.065Z,48.48
2018-12-31T03:04:22.829Z,48.48
2018-12-31T03:09:26.605Z,48.19
2018-12-31T03:14:30.377Z,48.78
2018-12-31T03:19:34.147Z,48.78
2018-12-31T03:24:37.930Z,48.17
2018-12-31T03:29:41.693Z,48.17
2018-12-31T03:34:45.468Z,48.73
2018-12-31T03:39:49.238Z,48.51
2018-12-31T03:44:54.182Z,48.51
2018-12-31T03:49:57.946Z,49.12
2018-12-31T03:55:01.711Z,49.12
2018-12-31T04:00:06.651Z,49.01
2018-12-31T04:05:10.417Z,49.11
2018-12-31T04:10:14.190Z,49.11
2018-12-31T04:15:17.951Z,48.80
2018-12-31T04:20:21.715Z,49.28
2018-12-31T04:25:25.478Z,49.28
2018-12-31T04:30:29.251Z,49.28
2018-12-31T04:35:33.017Z,49.60
2018-12-31T04:40:36.783Z,49.67
2018-12-31T04:45:40.570Z,49.86
2018-12-31T04:50:44.336Z,49.77
2018-12-31T04:55:48.129Z,49.77
2018-12-31T05:00:51.916Z,49.66
2018-12-31T05:05:55.729Z,49.98
2018-12-31T05:10:59.513Z,49.50
2018-12-31T05:16:03.297Z,50.18
2018-12-31T05:21:07.075Z,50.18
2018-12-31T05:26:10.875Z,49.88
2018-12-31T05:31:14.647Z,49.87
2018-12-31T05:36:18.443Z,50.19
2018-12-31T05:41:22.244Z,50.19
2018-12-31T05:46:26.048Z,50.07
2018-12-31T05:51:29.813Z,50.19
2018-12-31T05:56:33.611Z,50.00
2018-12-31T06:01:37.401Z,50.00
2018-12-31T06:06:41.194Z,50.39
2018-12-31T06:11:44.982Z,50.71
2018-12-31T06:16:48.796Z,50.05
2018-12-31T06:21:52.549Z,50.52
2018-12-31T06:26:56.333Z,50.27
2018-12-31T06:32:00.119Z,50.27
2018-12-31T06:37:03.932Z,50.34
2018-12-31T06:42:07.702Z,50.50
2018-12-31T06:47:11.493Z,50.50
2018-12-31T06:52:15.277Z,50.78
2018-12-31T06:57:19.059Z,51.12
2018-12-31T07:02:22.835Z,50.94
2018-12-31T07:07:26.634Z,50.88
2018-12-31T07:12:30.456Z,50.88
2018-12-31T07:17:34.266Z,50.95
2018-12-31T07:22:38.119Z,50.95
2018-12-31T07:27:41.915Z,50.78
2018-12-31T07:32:45.688Z,50.78
2018-12-31T07:37:49.473Z,50.58
2018-12-31T07:42:53.266Z,51.06
2018-12-31T07:47:57.046Z,50.86
2018-12-31T07:53:00.821Z,51.14
2018-12-31T07:58:04.602Z,51.14
2018-12-31T08:03:08.388Z,50.92
2018-12-31T08:08:12.179Z,50.87
2018-12-31T08:13:15.965Z,51.15
2018-12-31T08:18:19.752Z,50.97
2018-12-31T08:23:23.537Z,50.69
2018-12-31T08:28:27.349Z,46.33
2018-12-31T08:33:31.167Z,46.33
2018-12-31T08:38:34.950Z,46.98
2018-12-31T08:43:38.730Z,42.08
2018-12-31T08:48:42.501Z,41.27
2018-12-31T08:53:46.287Z,41.27
2018-12-31T08:58:50.063Z,40.78
2018-12-31T09:03:53.822Z,41.95
2018-12-31T09:08:57.577Z,41.95
2018-12-31T09:14:01.345Z,42.79
2018-12-31T09:19:05.133Z,42.79
2018-12-31T09:24:08.896Z,43.11
2018-12-31T09:29:12.658Z,44.17
2018-12-31T09:34:16.430Z,44.17
2018-12-31T09:39:20.205Z,44.73
2018-12-31T09:44:23.982Z,44.73
2018-12-31T09:49:27.753Z,45.57
2018-12-31T09:54:31.518Z,46.48
2018-12-31T09:59:35.278Z,46.66
2018-12-31T10:04:39.043Z,46.60
2018-12-31T10:09:42.818Z,47.21
2018-12-31T10:14:46.586Z,47.23
2018-12-31T10:19:50.345Z,47.23
2018-12-31T10:24:54.134Z,47.69
2018-12-31T10:29:57.904Z,48.16
2018-12-31T10:35:01.701Z,48.36
2018-12-31T10:40:07.783Z,48.36
2018-12-31T10:45:11.548Z,48.10
2018-12-31T10:50:15.313Z,48.22
2018-12-31T10:55:19.086Z,47.92
2018-12-31T11:00:22.890Z,47.89
2018-12-31T11:05:26.660Z,48.78
2018-12-31T11:10:30.702Z,48.78
2018-12-31T11:15:34.472Z,48.74
2018-12-31T11:20:38.247Z,49.00
2018-12-31T11:25:42.018Z,49.28
2018-12-31T11:30:45.791Z,49.54
2018-12-31T11:35:49.557Z,49.89
2018-12-31T11:40:53.337Z,49.89
2018-12-31T11:45:57.105Z,50.71
2018-12-31T11:51:00.868Z,50.62
2018-12-31T11:56:04.651Z,50.77
2018-12-31T12:01:08.409Z,50.77
2018-12-31T12:06:12.192Z,51.60
2018-12-31T12:11:15.970Z,51.95
2018-12-31T12:16:19.748Z,52.08
2018-12-31T12:21:23.511Z,51.64
2018-12-31T12:26:27.315Z,52.02
2018-12-31T12:31:31.168Z,51.32
2018-12-31T12:36:34.934Z,51.43
2018-12-31T12:41:38.693Z,51.43
2018-12-31T12:46:42.458Z,50.76
2018-12-31T12:51:46.222Z,49.80
2018-12-31T12:56:49.990Z,49.32
2018-12-31T13:01:53.782Z,49.32
2018-12-31T13:06:57.799Z,49.11
2018-12-31T13:12:02.795Z,49.11
2018-12-31T13:17:06.569Z,48.78
2018-12-31T13:22:10.343Z,48.46
2018-12-31T13:27:14.133Z,48.27
2018-12-31T13:32:17.896Z,48.24
2018-12-31T13:37:21.658Z,47.25
2018-12-31T13:42:25.443Z,47.33
2018-12-31T13:47:29.494Z,48.14
2018-12-31T13:52:33.255Z,48.14
2018-12-31T13:57:37.299Z,47.54
2018-12-31T14:02:41.064Z,47.54
2018-12-31T14:07:45.103Z,48.32
2018-12-31T14:12:48.861Z,48.16
2018-12-31T14:17:52.902Z,48.40
2018-12-31T14:22:56.684Z,48.40
2018-12-31T14:28:00.934Z,48.59
2018-12-31T14:33:04.696Z,48.74
2018-12-31T14:38:08.830Z,49.13
2018-12-31T14:43:12.603Z,48.81
2018-12-31T14:48:16.367Z,49.26
2018-12-31T14:53:20.129Z,49.52
2018-12-31T14:58:25.331Z,49.52
2018-12-31T15:03:29.151Z,49.41
2018-12-31T15:08:32.916Z,49.55
2018-12-31T15:13:36.703Z,49.50
2018-12-31T15:18:40.450Z,49.55
2018-12-31T15:23:44.230Z,49.18
2018-12-31T15:28:47.999Z,49.32
2018-12-31T15:33:51.800Z,49.32
2018-12-31T15:38:55.576Z,49.20
2018-12-31T15:44:01.443Z,48.90
2018-12-31T15:49:05.213Z,49.63
2018-12-31T15:54:08.987Z,49.27
2018-12-31T15:59:12.763Z,48.98
2018-12-31T16:04:16.538Z,49.66
2018-12-31T16:09:20.312Z,49.66
2018-12-31T16:14:24.084Z,49.26
2018-12-31T16:19:27.853Z,49.17
2018-12-31T16:24:31.621Z,49.51
2018-12-31T16:29:35.405Z,49.54
2018-12-31T16:34:39.181Z,49.54
2018-12-31T16:39:42.950Z,49.36
2018-12-31T16:44:46.721Z,49.31
2018-12-31T16:49:50.481Z,49.23
2018-12-31T16:54:54.523Z,49.30
2018-12-31T16:59:58.299Z,49.08
2018-12-31T17:05:02.523Z,49.40
2018-12-31T17:10:08.232Z,49.68
2018-12-31T17:15:12.034Z,49.36
2018-12-31T17:20:15.808Z,49.36
2018-12-31T17:25:19.580Z,49.03
2018-12-31T17:30:23.351Z,49.03
2018-12-31T17:35:27.124Z,49.23
2018-12-31T17:40:30.915Z,49.23
2018-12-31T17:45:34.742Z,48.79
2018-12-31T17:50:38.527Z,49.37
2018-12-31T17:55:42.309Z,49.15
2018-12-31T18:00:46.856Z,49.15
2018-12-31T18:05:50.635Z,49.14
2018-12-31T18:10:54.429Z,44.74
2018-12-31T18:15:58.225Z,48.43
2018-12-31T18:21:02.330Z,49.35
2018-12-31T18:26:06.109Z,45.45
2018-12-31T18:31:11.026Z,45.45
2018-12-31T18:36:14.811Z,42.94
2018-12-31T18:41:18.598Z,43.58
2018-12-31T18:46:23.438Z,43.44
2018-12-31T18:51:27.197Z,43.44
2018-12-31T18:56:30.986Z,43.90
2018-12-31T19:01:35.041Z,43.90
2018-12-31T19:06:38.822Z,44.73
2018-12-31T19:11:42.982Z,44.73
2018-12-31T19:16:49.120Z,44.97
2018-12-31T19:21:53.284Z,44.90
2018-12-31T19:26:57.455Z,45.17
2018-12-31T19:32:01.243Z,45.18
2018-12-31T19:37:05.021Z,45.55
2018-12-31T19:42:08.817Z,45.55
2018-12-31T19:47:12.607Z,46.07
2018-12-31T19:52:16.388Z,46.24
2018-12-31T19:57:20.166Z,46.24
2018-12-31T20:02:23.970Z,46.42
2018-12-31T20:07:27.753Z,46.15
2018-12-31T20:12:32.804Z,46.15
2018-12-31T20:17:36.584Z,46.38
2018-12-31T20:22:40.364Z,46.46
2018-12-31T20:27:44.157Z,46.69
2018-12-31T20:32:47.933Z,46.69
2018-12-31T20:37:52.103Z,47.25
2018-12-31T20:42:55.972Z,46.92
2018-12-31T20:48:01.952Z,46.92
2018-12-31T20:53:05.243Z,47.42
2018-12-31T20:58:09.022Z,47.44
2018-12-31T21:03:12.793Z,47.12
2018-12-31T21:08:16.566Z,47.02
2018-12-31T21:13:20.369Z,47.46
2018-12-31T21:18:24.183Z,47.07
2018-12-31T21:23:27.979Z,46.96
2018-12-31T21:28:31.854Z,47.23
2018-12-31T21:33:35.632Z,47.30
2018-12-31T21:38:39.427Z,46.96
2018-12-31T21:43:43.494Z,47.29
2018-12-31T21:48:47.284Z,47.07
2018-12-31T21:53:51.071Z,47.07
2018-12-31T21:58:54.861Z,47.03
2018-12-31T22:03:58.658Z,47.53
2018-12-31T22:09:02.447Z,47.53
2018-12-31T22:14:06.239Z,47.41
2018-12-31T22:19:10.040Z,47.11
2018-12-31T22:24:13.888Z,47.55
2018-12-31T22:29:17.681Z,47.55
2018-12-31T22:34:21.471Z,47.25
2018-12-31T22:39:25.262Z,47.67
2018-12-31T22:44:29.053Z,47.67
2018-12-31T22:49:32.847Z,47.44
2018-12-31T22:54:37.829Z,47.25
2018-12-31T22:59:41.637Z,47.49
2018-12-31T23:04:45.435Z,47.14
2018-12-31T23:09:49.228Z,47.98
2018-12-31T23:14:53.018Z,47.34
2018-12-31T23:19:57.099Z,47.34
2018-12-31T23:25:00.905Z,47.50
2018-12-31T23:30:06.406Z,47.59
2018-12-31T23:35:10.276Z,47.59
2018-12-31T23:40:14.072Z,47.76
2018-12-31T23:45:17.861Z,47.44
2018-12-31T23:50:21.682Z,47.53
2018-12-31T23:55:25.464Z,47.53
